sensor_id;sensor_type;location;lat;lon;timestamp;P1;durP1;ratioP1;P2;durP2;ratioP2
49592;SDS011;35499;51.482;4.264;2023-04-25T00:00:46;12.70;;;2.43;;
49592;SDS011;35499;51.482;4.264;2023-04-25T00:03:11;11.00;;;2.10;;
49592;SDS011;35499;51.482;4.264;2023-04-25T00:05:37;11.27;;;2.70;;
49592;SDS011;35499;51.482;4.264;2023-04-25T00:08:03;10.52;;;2.70;;
49592;SDS011;35499;51.482;4.264;2023-04-25T00:10:28;14.15;;;3.08;;
49592;SDS011;35499;51.482;4.264;2023-04-25T00:12:54;9.63;;;2.80;;
49592;SDS011;35499;51.482;4.264;2023-04-25T00:15:19;13.07;;;3.03;;
49592;SDS011;35499;51.482;4.264;2023-04-25T00:17:44;17.33;;;3.20;;
49592;SDS011;35499;51.482;4.264;2023-04-25T00:20:10;18.17;;;3.25;;
49592;SDS011;35499;51.482;4.264;2023-04-25T00:22:36;9.40;;;2.25;;
49592;SDS011;35499;51.482;4.264;2023-04-25T00:25:03;8.27;;;2.58;;
49592;SDS011;35499;51.482;4.264;2023-04-25T00:27:29;14.68;;;2.92;;
49592;SDS011;35499;51.482;4.264;2023-04-25T00:29:55;11.50;;;2.43;;
49592;SDS011;35499;51.482;4.264;2023-04-25T00:32:20;10.83;;;2.50;;
49592;SDS011;35499;51.482;4.264;2023-04-25T00:34:45;15.50;;;2.63;;
49592;SDS011;35499;51.482;4.264;2023-04-25T00:37:10;11.40;;;2.17;;
49592;SDS011;35499;51.482;4.264;2023-04-25T00:39:36;12.57;;;3.03;;
49592;SDS011;35499;51.482;4.264;2023-04-25T00:42:02;15.13;;;2.43;;
49592;SDS011;35499;51.482;4.264;2023-04-25T00:44:27;11.82;;;2.17;;
49592;SDS011;35499;51.482;4.264;2023-04-25T00:46:54;8.55;;;2.55;;
49592;SDS011;35499;51.482;4.264;2023-04-25T00:49:20;13.40;;;2.72;;
49592;SDS011;35499;51.482;4.264;2023-04-25T00:51:45;9.30;;;2.70;;
49592;SDS011;35499;51.482;4.264;2023-04-25T00:54:11;21.10;;;3.13;;
49592;SDS011;35499;51.482;4.264;2023-04-25T00:56:37;12.73;;;3.00;;
49592;SDS011;35499;51.482;4.264;2023-04-25T00:59:03;12.73;;;2.95;;
49592;SDS011;35499;51.482;4.264;2023-04-25T01:01:29;11.43;;;2.70;;
49592;SDS011;35499;51.482;4.264;2023-04-25T01:06:21;11.50;;;2.38;;
49592;SDS011;35499;51.482;4.264;2023-04-25T01:08:47;11.57;;;2.35;;
49592;SDS011;35499;51.482;4.264;2023-04-25T01:11:12;10.88;;;2.15;;
49592;SDS011;35499;51.482;4.264;2023-04-25T01:13:38;11.47;;;2.80;;
49592;SDS011;35499;51.482;4.264;2023-04-25T01:16:03;11.37;;;2.30;;
49592;SDS011;35499;51.482;4.264;2023-04-25T01:18:29;11.20;;;2.80;;
49592;SDS011;35499;51.482;4.264;2023-04-25T01:20:54;11.82;;;2.80;;
49592;SDS011;35499;51.482;4.264;2023-04-25T01:23:20;12.70;;;2.83;;
49592;SDS011;35499;51.482;4.264;2023-04-25T01:25:47;9.18;;;2.53;;
49592;SDS011;35499;51.482;4.264;2023-04-25T01:28:13;12.13;;;2.53;;
49592;SDS011;35499;51.482;4.264;2023-04-25T01:30:38;10.70;;;3.03;;
49592;SDS011;35499;51.482;4.264;2023-04-25T01:33:04;10.00;;;2.85;;
49592;SDS011;35499;51.482;4.264;2023-04-25T01:35:30;9.38;;;2.35;;
49592;SDS011;35499;51.482;4.264;2023-04-25T01:37:56;13.38;;;3.42;;
49592;SDS011;35499;51.482;4.264;2023-04-25T01:40:21;10.87;;;2.37;;
49592;SDS011;35499;51.482;4.264;2023-04-25T01:42:48;10.90;;;2.80;;
49592;SDS011;35499;51.482;4.264;2023-04-25T01:45:13;20.45;;;2.75;;
49592;SDS011;35499;51.482;4.264;2023-04-25T01:47:39;13.07;;;3.30;;
49592;SDS011;35499;51.482;4.264;2023-04-25T01:50:06;18.33;;;3.03;;
49592;SDS011;35499;51.482;4.264;2023-04-25T01:52:32;14.48;;;2.63;;
49592;SDS011;35499;51.482;4.264;2023-04-25T01:55:01;9.07;;;2.50;;
49592;SDS011;35499;51.482;4.264;2023-04-25T01:57:27;11.32;;;2.85;;
49592;SDS011;35499;51.482;4.264;2023-04-25T02:00:04;11.52;;;2.38;;
49592;SDS011;35499;51.482;4.264;2023-04-25T02:02:31;14.30;;;2.60;;
49592;SDS011;35499;51.482;4.264;2023-04-25T02:04:57;8.50;;;2.33;;
49592;SDS011;35499;51.482;4.264;2023-04-25T02:07:22;11.83;;;2.20;;
49592;SDS011;35499;51.482;4.264;2023-04-25T02:09:47;7.77;;;2.50;;
49592;SDS011;35499;51.482;4.264;2023-04-25T02:12:12;9.93;;;2.53;;
49592;SDS011;35499;51.482;4.264;2023-04-25T02:14:38;10.13;;;2.83;;
49592;SDS011;35499;51.482;4.264;2023-04-25T02:17:03;10.70;;;2.70;;
49592;SDS011;35499;51.482;4.264;2023-04-25T02:19:28;12.95;;;3.00;;
49592;SDS011;35499;51.482;4.264;2023-04-25T02:21:54;6.70;;;2.15;;
49592;SDS011;35499;51.482;4.264;2023-04-25T02:24:20;13.85;;;2.53;;
49592;SDS011;35499;51.482;4.264;2023-04-25T02:26:45;13.95;;;2.65;;
49592;SDS011;35499;51.482;4.264;2023-04-25T02:29:11;10.82;;;2.72;;
49592;SDS011;35499;51.482;4.264;2023-04-25T02:31:37;7.95;;;2.05;;
49592;SDS011;35499;51.482;4.264;2023-04-25T02:34:02;11.60;;;3.03;;
49592;SDS011;35499;51.482;4.264;2023-04-25T02:36:27;9.47;;;2.30;;
49592;SDS011;35499;51.482;4.264;2023-04-25T02:38:55;12.23;;;2.90;;
49592;SDS011;35499;51.482;4.264;2023-04-25T02:41:20;11.57;;;2.60;;
49592;SDS011;35499;51.482;4.264;2023-04-25T02:43:45;14.07;;;2.93;;
49592;SDS011;35499;51.482;4.264;2023-04-25T02:46:11;7.63;;;1.97;;
49592;SDS011;35499;51.482;4.264;2023-04-25T02:48:36;8.00;;;2.53;;
49592;SDS011;35499;51.482;4.264;2023-04-25T02:51:01;5.57;;;1.90;;
49592;SDS011;35499;51.482;4.264;2023-04-25T02:53:27;9.48;;;2.00;;
49592;SDS011;35499;51.482;4.264;2023-04-25T02:55:52;9.50;;;2.23;;
49592;SDS011;35499;51.482;4.264;2023-04-25T02:58:17;6.82;;;2.35;;
49592;SDS011;35499;51.482;4.264;2023-04-25T03:00:43;8.63;;;2.35;;
49592;SDS011;35499;51.482;4.264;2023-04-25T03:03:08;10.97;;;2.43;;
49592;SDS011;35499;51.482;4.264;2023-04-25T03:05:33;7.00;;;2.10;;
49592;SDS011;35499;51.482;4.264;2023-04-25T03:07:59;7.43;;;2.40;;
49592;SDS011;35499;51.482;4.264;2023-04-25T03:10:24;9.80;;;2.33;;
49592;SDS011;35499;51.482;4.264;2023-04-25T03:12:49;10.98;;;2.55;;
49592;SDS011;35499;51.482;4.264;2023-04-25T03:15:15;8.50;;;1.93;;
49592;SDS011;35499;51.482;4.264;2023-04-25T03:17:41;6.53;;;1.92;;
49592;SDS011;35499;51.482;4.264;2023-04-25T03:20:07;11.13;;;2.20;;
49592;SDS011;35499;51.482;4.264;2023-04-25T03:22:33;5.22;;;1.45;;
49592;SDS011;35499;51.482;4.264;2023-04-25T03:24:58;9.15;;;2.38;;
49592;SDS011;35499;51.482;4.264;2023-04-25T03:27:24;8.13;;;2.10;;
49592;SDS011;35499;51.482;4.264;2023-04-25T03:29:49;12.10;;;2.50;;
49592;SDS011;35499;51.482;4.264;2023-04-25T03:32:15;7.27;;;2.17;;
49592;SDS011;35499;51.482;4.264;2023-04-25T03:34:40;8.43;;;1.90;;
49592;SDS011;35499;51.482;4.264;2023-04-25T03:37:05;8.32;;;2.20;;
49592;SDS011;35499;51.482;4.264;2023-04-25T03:39:31;7.20;;;2.23;;
49592;SDS011;35499;51.482;4.264;2023-04-25T03:41:56;11.47;;;2.63;;
49592;SDS011;35499;51.482;4.264;2023-04-25T03:44:21;11.10;;;2.53;;
49592;SDS011;35499;51.482;4.264;2023-04-25T03:46:46;8.23;;;2.00;;
49592;SDS011;35499;51.482;4.264;2023-04-25T03:49:12;8.57;;;2.13;;
49592;SDS011;35499;51.482;4.264;2023-04-25T03:51:38;8.30;;;2.17;;
49592;SDS011;35499;51.482;4.264;2023-04-25T03:54:03;8.00;;;2.13;;
49592;SDS011;35499;51.482;4.264;2023-04-25T03:56:29;6.77;;;2.00;;
49592;SDS011;35499;51.482;4.264;2023-04-25T03:58:55;8.07;;;2.03;;
49592;SDS011;35499;51.482;4.264;2023-04-25T04:01:20;10.33;;;2.43;;
49592;SDS011;35499;51.482;4.264;2023-04-25T04:03:45;9.80;;;2.77;;
49592;SDS011;35499;51.482;4.264;2023-04-25T04:06:10;16.27;;;2.97;;
49592;SDS011;35499;51.482;4.264;2023-04-25T04:08:36;6.82;;;1.95;;
49592;SDS011;35499;51.482;4.264;2023-04-25T04:11:01;9.57;;;2.47;;
49592;SDS011;35499;51.482;4.264;2023-04-25T04:13:26;13.37;;;2.87;;
49592;SDS011;35499;51.482;4.264;2023-04-25T04:15:52;9.18;;;3.05;;
49592;SDS011;35499;51.482;4.264;2023-04-25T04:18:18;7.57;;;1.77;;
49592;SDS011;35499;51.482;4.264;2023-04-25T04:20:43;9.38;;;2.35;;
49592;SDS011;35499;51.482;4.264;2023-04-25T04:23:08;8.63;;;1.73;;
49592;SDS011;35499;51.482;4.264;2023-04-25T04:25:34;6.77;;;1.83;;
49592;SDS011;35499;51.482;4.264;2023-04-25T04:28:00;6.80;;;1.98;;
49592;SDS011;35499;51.482;4.264;2023-04-25T04:30:26;6.05;;;1.85;;
49592;SDS011;35499;51.482;4.264;2023-04-25T04:32:54;7.15;;;1.48;;
49592;SDS011;35499;51.482;4.264;2023-04-25T04:35:20;6.30;;;1.23;;
49592;SDS011;35499;51.482;4.264;2023-04-25T04:37:46;6.57;;;1.55;;
49592;SDS011;35499;51.482;4.264;2023-04-25T04:40:12;7.25;;;1.55;;
49592;SDS011;35499;51.482;4.264;2023-04-25T04:42:40;6.85;;;1.50;;
49592;SDS011;35499;51.482;4.264;2023-04-25T04:45:06;8.60;;;1.45;;
49592;SDS011;35499;51.482;4.264;2023-04-25T04:47:31;5.13;;;1.50;;
49592;SDS011;35499;51.482;4.264;2023-04-25T04:49:57;6.82;;;1.70;;
49592;SDS011;35499;51.482;4.264;2023-04-25T04:52:22;8.63;;;1.80;;
49592;SDS011;35499;51.482;4.264;2023-04-25T04:54:48;3.37;;;1.43;;
49592;SDS011;35499;51.482;4.264;2023-04-25T04:57:13;4.57;;;1.27;;
49592;SDS011;35499;51.482;4.264;2023-04-25T04:59:38;5.53;;;1.92;;
49592;SDS011;35499;51.482;4.264;2023-04-25T05:02:04;5.00;;;1.57;;
49592;SDS011;35499;51.482;4.264;2023-04-25T05:04:29;12.43;;;1.92;;
49592;SDS011;35499;51.482;4.264;2023-04-25T05:06:54;8.17;;;1.93;;
49592;SDS011;35499;51.482;4.264;2023-04-25T05:09:20;7.13;;;2.33;;
49592;SDS011;35499;51.482;4.264;2023-04-25T05:11:45;8.50;;;2.03;;
49592;SDS011;35499;51.482;4.264;2023-04-25T05:14:11;6.47;;;1.95;;
49592;SDS011;35499;51.482;4.264;2023-04-25T05:16:36;11.15;;;2.58;;
49592;SDS011;35499;51.482;4.264;2023-04-25T05:19:01;3.67;;;1.63;;
49592;SDS011;35499;51.482;4.264;2023-04-25T05:21:26;5.67;;;1.70;;
49592;SDS011;35499;51.482;4.264;2023-04-25T05:23:53;7.65;;;1.75;;
49592;SDS011;35499;51.482;4.264;2023-04-25T05:26:18;6.68;;;1.40;;
49592;SDS011;35499;51.482;4.264;2023-04-25T05:28:45;9.52;;;1.80;;
49592;SDS011;35499;51.482;4.264;2023-04-25T05:31:11;7.40;;;1.67;;
49592;SDS011;35499;51.482;4.264;2023-04-25T05:33:37;7.57;;;1.90;;
49592;SDS011;35499;51.482;4.264;2023-04-25T05:36:02;4.60;;;1.40;;
49592;SDS011;35499;51.482;4.264;2023-04-25T05:38:28;4.13;;;1.38;;
49592;SDS011;35499;51.482;4.264;2023-04-25T05:40:53;7.05;;;2.50;;
49592;SDS011;35499;51.482;4.264;2023-04-25T05:43:18;3.93;;;0.90;;
49592;SDS011;35499;51.482;4.264;2023-04-25T05:45:44;5.07;;;1.77;;
49592;SDS011;35499;51.482;4.264;2023-04-25T05:48:09;5.47;;;1.57;;
49592;SDS011;35499;51.482;4.264;2023-04-25T05:50:34;7.20;;;1.80;;
49592;SDS011;35499;51.482;4.264;2023-04-25T05:53:00;8.70;;;1.80;;
49592;SDS011;35499;51.482;4.264;2023-04-25T05:55:25;3.85;;;1.48;;
49592;SDS011;35499;51.482;4.264;2023-04-25T05:57:50;5.83;;;1.40;;
49592;SDS011;35499;51.482;4.264;2023-04-25T06:00:16;10.63;;;1.60;;
49592;SDS011;35499;51.482;4.264;2023-04-25T06:02:41;9.52;;;1.83;;
49592;SDS011;35499;51.482;4.264;2023-04-25T06:05:07;5.70;;;1.83;;
49592;SDS011;35499;51.482;4.264;2023-04-25T06:07:33;7.63;;;1.83;;
49592;SDS011;35499;51.482;4.264;2023-04-25T06:09:58;4.37;;;1.40;;
49592;SDS011;35499;51.482;4.264;2023-04-25T06:12:25;6.85;;;1.90;;
49592;SDS011;35499;51.482;4.264;2023-04-25T06:14:50;5.63;;;1.50;;
49592;SDS011;35499;51.482;4.264;2023-04-25T06:17:15;4.00;;;1.10;;
49592;SDS011;35499;51.482;4.264;2023-04-25T06:19:40;4.93;;;1.33;;
49592;SDS011;35499;51.482;4.264;2023-04-25T06:22:06;6.93;;;1.70;;
49592;SDS011;35499;51.482;4.264;2023-04-25T06:24:32;4.35;;;1.30;;
49592;SDS011;35499;51.482;4.264;2023-04-25T06:26:58;8.88;;;1.10;;
49592;SDS011;35499;51.482;4.264;2023-04-25T06:29:25;5.17;;;1.10;;
49592;SDS011;35499;51.482;4.264;2023-04-25T06:34:16;6.13;;;1.13;;
49592;SDS011;35499;51.482;4.264;2023-04-25T06:36:41;4.90;;;1.65;;
49592;SDS011;35499;51.482;4.264;2023-04-25T06:39:06;3.40;;;1.00;;
49592;SDS011;35499;51.482;4.264;2023-04-25T06:41:31;6.10;;;1.13;;
49592;SDS011;35499;51.482;4.264;2023-04-25T06:43:57;5.37;;;0.90;;
49592;SDS011;35499;51.482;4.264;2023-04-25T06:46:22;5.70;;;0.90;;
49592;SDS011;35499;51.482;4.264;2023-04-25T06:48:47;8.67;;;1.20;;
49592;SDS011;35499;51.482;4.264;2023-04-25T06:51:13;6.10;;;1.30;;
49592;SDS011;35499;51.482;4.264;2023-04-25T06:53:38;4.47;;;0.83;;
49592;SDS011;35499;51.482;4.264;2023-04-25T06:56:04;4.05;;;0.90;;
49592;SDS011;35499;51.482;4.264;2023-04-25T06:58:29;2.22;;;0.77;;
49592;SDS011;35499;51.482;4.264;2023-04-25T07:00:54;6.00;;;1.50;;
49592;SDS011;35499;51.482;4.264;2023-04-25T07:03:20;6.97;;;1.07;;
49592;SDS011;35499;51.482;4.264;2023-04-25T07:05:45;3.13;;;1.05;;
49592;SDS011;35499;51.482;4.264;2023-04-25T07:08:11;4.00;;;0.95;;
49592;SDS011;35499;51.482;4.264;2023-04-25T07:10:36;3.65;;;0.90;;
49592;SDS011;35499;51.482;4.264;2023-04-25T07:13:01;7.80;;;0.97;;
49592;SDS011;35499;51.482;4.264;2023-04-25T07:15:27;1.50;;;0.50;;
49592;SDS011;35499;51.482;4.264;2023-04-25T07:17:52;6.38;;;1.27;;
49592;SDS011;35499;51.482;4.264;2023-04-25T07:20:17;4.77;;;1.20;;
49592;SDS011;35499;51.482;4.264;2023-04-25T07:22:43;4.60;;;0.73;;
49592;SDS011;35499;51.482;4.264;2023-04-25T07:25:09;5.78;;;1.10;;
49592;SDS011;35499;51.482;4.264;2023-04-25T07:27:34;6.63;;;1.35;;
49592;SDS011;35499;51.482;4.264;2023-04-25T07:30:00;3.50;;;0.55;;
49592;SDS011;35499;51.482;4.264;2023-04-25T07:32:25;2.35;;;0.75;;
49592;SDS011;35499;51.482;4.264;2023-04-25T07:34:51;3.83;;;0.63;;
49592;SDS011;35499;51.482;4.264;2023-04-25T07:37:16;4.53;;;0.80;;
49592;SDS011;35499;51.482;4.264;2023-04-25T07:39:43;2.15;;;0.60;;
49592;SDS011;35499;51.482;4.264;2023-04-25T07:42:10;4.10;;;0.95;;
49592;SDS011;35499;51.482;4.264;2023-04-25T07:44:36;3.53;;;0.73;;
49592;SDS011;35499;51.482;4.264;2023-04-25T07:47:07;3.58;;;0.73;;
49592;SDS011;35499;51.482;4.264;2023-04-25T07:49:36;4.75;;;0.90;;
49592;SDS011;35499;51.482;4.264;2023-04-25T07:52:02;4.15;;;0.80;;
49592;SDS011;35499;51.482;4.264;2023-04-25T07:56:54;3.83;;;0.88;;
49592;SDS011;35499;51.482;4.264;2023-04-25T07:59:20;3.72;;;0.63;;
49592;SDS011;35499;51.482;4.264;2023-04-25T08:01:45;3.43;;;0.60;;
49592;SDS011;35499;51.482;4.264;2023-04-25T08:04:11;3.38;;;0.63;;
49592;SDS011;35499;51.482;4.264;2023-04-25T08:06:36;4.03;;;0.60;;
49592;SDS011;35499;51.482;4.264;2023-04-25T08:09:01;6.68;;;0.85;;
49592;SDS011;35499;51.482;4.264;2023-04-25T08:11:27;2.75;;;0.45;;
49592;SDS011;35499;51.482;4.264;2023-04-25T08:13:53;2.92;;;0.63;;
49592;SDS011;35499;51.482;4.264;2023-04-25T08:16:18;3.07;;;0.50;;
49592;SDS011;35499;51.482;4.264;2023-04-25T08:18:43;2.87;;;0.60;;
49592;SDS011;35499;51.482;4.264;2023-04-25T08:21:09;4.50;;;0.70;;
49592;SDS011;35499;51.482;4.264;2023-04-25T08:23:36;3.30;;;0.50;;
49592;SDS011;35499;51.482;4.264;2023-04-25T08:26:02;4.43;;;0.52;;
49592;SDS011;35499;51.482;4.264;2023-04-25T08:28:27;4.47;;;1.30;;
49592;SDS011;35499;51.482;4.264;2023-04-25T08:30:53;5.28;;;0.60;;
49592;SDS011;35499;51.482;4.264;2023-04-25T08:33:18;2.90;;;0.50;;
49592;SDS011;35499;51.482;4.264;2023-04-25T08:35:44;6.50;;;0.90;;
49592;SDS011;35499;51.482;4.264;2023-04-25T08:38:09;2.30;;;0.35;;
49592;SDS011;35499;51.482;4.264;2023-04-25T08:40:35;6.03;;;0.60;;
49592;SDS011;35499;51.482;4.264;2023-04-25T08:43:02;4.72;;;0.93;;
49592;SDS011;35499;51.482;4.264;2023-04-25T08:45:29;2.78;;;0.90;;
49592;SDS011;35499;51.482;4.264;2023-04-25T08:47:56;4.28;;;0.73;;
49592;SDS011;35499;51.482;4.264;2023-04-25T08:50:22;6.47;;;1.02;;
49592;SDS011;35499;51.482;4.264;2023-04-25T08:52:49;5.00;;;0.90;;
49592;SDS011;35499;51.482;4.264;2023-04-25T08:55:17;8.43;;;0.85;;
49592;SDS011;35499;51.482;4.264;2023-04-25T08:57:43;3.53;;;0.60;;
49592;SDS011;35499;51.482;4.264;2023-04-25T09:04:38;3.58;;;1.25;;
49592;SDS011;35499;51.482;4.264;2023-04-25T09:07:04;3.15;;;0.80;;
49592;SDS011;35499;51.482;4.264;2023-04-25T09:09:30;4.35;;;0.50;;
49592;SDS011;35499;51.482;4.264;2023-04-25T09:11:55;5.97;;;1.35;;
49592;SDS011;35499;51.482;4.264;2023-04-25T09:14:21;5.38;;;0.50;;
49592;SDS011;35499;51.482;4.264;2023-04-25T09:21:53;5.77;;;0.70;;
49592;SDS011;35499;51.482;4.264;2023-04-25T09:24:38;6.18;;;0.40;;
49592;SDS011;35499;51.482;4.264;2023-04-25T09:27:06;2.25;;;0.60;;
49592;SDS011;35499;51.482;4.264;2023-04-25T09:29:34;3.13;;;0.70;;
49592;SDS011;35499;51.482;4.264;2023-04-25T09:32:11;1.90;;;0.75;;
49592;SDS011;35499;51.482;4.264;2023-04-25T09:34:50;2.45;;;0.50;;
49592;SDS011;35499;51.482;4.264;2023-04-25T09:37:17;3.80;;;0.70;;
49592;SDS011;35499;51.482;4.264;2023-04-25T09:39:47;3.08;;;0.70;;
49592;SDS011;35499;51.482;4.264;2023-04-25T09:42:14;4.20;;;0.45;;
49592;SDS011;35499;51.482;4.264;2023-04-25T09:44:44;4.10;;;0.45;;
49592;SDS011;35499;51.482;4.264;2023-04-25T09:47:11;1.83;;;0.57;;
49592;SDS011;35499;51.482;4.264;2023-04-25T09:49:41;3.10;;;0.70;;
49592;SDS011;35499;51.482;4.264;2023-04-25T09:52:07;1.35;;;0.50;;
49592;SDS011;35499;51.482;4.264;2023-04-25T09:54:33;4.10;;;0.65;;
49592;SDS011;35499;51.482;4.264;2023-04-25T09:56:59;3.97;;;0.40;;
49592;SDS011;35499;51.482;4.264;2023-04-25T09:59:47;4.18;;;0.63;;
49592;SDS011;35499;51.482;4.264;2023-04-25T10:02:15;4.97;;;0.65;;
49592;SDS011;35499;51.482;4.264;2023-04-25T10:04:42;2.45;;;0.38;;
49592;SDS011;35499;51.482;4.264;2023-04-25T10:07:11;3.13;;;0.40;;
49592;SDS011;35499;51.482;4.264;2023-04-25T10:09:37;2.65;;;0.50;;
49592;SDS011;35499;51.482;4.264;2023-04-25T10:12:04;3.92;;;0.43;;
49592;SDS011;35499;51.482;4.264;2023-04-25T10:16:57;1.92;;;0.70;;
49592;SDS011;35499;51.482;4.264;2023-04-25T10:19:23;2.70;;;0.57;;
49592;SDS011;35499;51.482;4.264;2023-04-25T10:22:10;2.85;;;0.57;;
49592;SDS011;35499;51.482;4.264;2023-04-25T10:24:39;2.25;;;0.60;;
49592;SDS011;35499;51.482;4.264;2023-04-25T10:27:06;3.80;;;0.40;;
49592;SDS011;35499;51.482;4.264;2023-04-25T10:29:32;3.65;;;0.45;;
49592;SDS011;35499;51.482;4.264;2023-04-25T10:31:57;3.63;;;0.60;;
49592;SDS011;35499;51.482;4.264;2023-04-25T10:34:38;4.22;;;0.52;;
49592;SDS011;35499;51.482;4.264;2023-04-25T10:37:05;2.28;;;0.50;;
49592;SDS011;35499;51.482;4.264;2023-04-25T10:39:34;5.18;;;0.50;;
49592;SDS011;35499;51.482;4.264;2023-04-25T10:41:59;3.05;;;0.60;;
49592;SDS011;35499;51.482;4.264;2023-04-25T10:44:30;2.97;;;0.47;;
49592;SDS011;35499;51.482;4.264;2023-04-25T10:46:57;2.72;;;0.80;;
49592;SDS011;35499;51.482;4.264;2023-04-25T10:49:28;4.90;;;0.52;;
49592;SDS011;35499;51.482;4.264;2023-04-25T10:54:46;3.28;;;0.50;;
49592;SDS011;35499;51.482;4.264;2023-04-25T11:00:05;3.95;;;0.52;;
49592;SDS011;35499;51.482;4.264;2023-04-25T11:02:30;3.63;;;0.47;;
49592;SDS011;35499;51.482;4.264;2023-04-25T11:04:56;2.35;;;0.75;;
49592;SDS011;35499;51.482;4.264;2023-04-25T11:07:33;2.40;;;0.80;;
49592;SDS011;35499;51.482;4.264;2023-04-25T11:10:03;7.22;;;0.65;;
49592;SDS011;35499;51.482;4.264;2023-04-25T11:12:30;3.45;;;0.40;;
49592;SDS011;35499;51.482;4.264;2023-04-25T11:15:03;3.88;;;0.70;;
49592;SDS011;35499;51.482;4.264;2023-04-25T11:17:30;9.55;;;0.88;;
49592;SDS011;35499;51.482;4.264;2023-04-25T11:19:55;4.88;;;0.57;;
49592;SDS011;35499;51.482;4.264;2023-04-25T11:22:21;2.83;;;0.80;;
49592;SDS011;35499;51.482;4.264;2023-04-25T11:24:47;6.78;;;0.85;;
49592;SDS011;35499;51.482;4.264;2023-04-25T11:27:12;3.08;;;0.50;;
49592;SDS011;35499;51.482;4.264;2023-04-25T11:29:38;4.60;;;0.40;;
49592;SDS011;35499;51.482;4.264;2023-04-25T11:32:03;3.75;;;0.63;;
49592;SDS011;35499;51.482;4.264;2023-04-25T11:34:29;3.80;;;0.30;;
49592;SDS011;35499;51.482;4.264;2023-04-25T11:36:55;4.07;;;0.65;;
49592;SDS011;35499;51.482;4.264;2023-04-25T11:39:21;3.28;;;1.00;;
49592;SDS011;35499;51.482;4.264;2023-04-25T11:41:48;4.00;;;0.80;;
49592;SDS011;35499;51.482;4.264;2023-04-25T11:44:18;2.92;;;0.50;;
49592;SDS011;35499;51.482;4.264;2023-04-25T11:46:44;3.30;;;0.75;;
49592;SDS011;35499;51.482;4.264;2023-04-25T11:49:10;2.55;;;0.35;;
49592;SDS011;35499;51.482;4.264;2023-04-25T11:51:43;7.43;;;0.60;;
49592;SDS011;35499;51.482;4.264;2023-04-25T11:54:10;1.38;;;0.20;;
49592;SDS011;35499;51.482;4.264;2023-04-25T11:56:36;2.72;;;0.30;;
49592;SDS011;35499;51.482;4.264;2023-04-25T11:59:03;1.85;;;0.20;;
49592;SDS011;35499;51.482;4.264;2023-04-25T12:01:30;2.45;;;0.35;;
49592;SDS011;35499;51.482;4.264;2023-04-25T12:04:10;1.38;;;0.40;;
49592;SDS011;35499;51.482;4.264;2023-04-25T12:06:39;3.70;;;0.28;;
49592;SDS011;35499;51.482;4.264;2023-04-25T12:09:10;3.92;;;0.50;;
49592;SDS011;35499;51.482;4.264;2023-04-25T12:11:41;2.28;;;0.30;;
49592;SDS011;35499;51.482;4.264;2023-04-25T12:14:07;2.63;;;0.40;;
49592;SDS011;35499;51.482;4.264;2023-04-25T12:19:08;1.88;;;0.40;;
49592;SDS011;35499;51.482;4.264;2023-04-25T12:21:33;3.85;;;0.40;;
49592;SDS011;35499;51.482;4.264;2023-04-25T12:24:12;3.15;;;0.55;;
49592;SDS011;35499;51.482;4.264;2023-04-25T12:26:49;5.75;;;0.63;;
49592;SDS011;35499;51.482;4.264;2023-04-25T12:29:20;3.08;;;0.75;;
49592;SDS011;35499;51.482;4.264;2023-04-25T12:31:47;4.18;;;0.60;;
49592;SDS011;35499;51.482;4.264;2023-04-25T12:34:14;4.18;;;0.70;;
49592;SDS011;35499;51.482;4.264;2023-04-25T12:36:40;3.95;;;0.47;;
49592;SDS011;35499;51.482;4.264;2023-04-25T12:39:05;4.38;;;0.50;;
49592;SDS011;35499;51.482;4.264;2023-04-25T12:41:31;3.28;;;0.80;;
49592;SDS011;35499;51.482;4.264;2023-04-25T12:43:57;3.33;;;0.45;;
49592;SDS011;35499;51.482;4.264;2023-04-25T12:46:22;6.30;;;0.50;;
49592;SDS011;35499;51.482;4.264;2023-04-25T12:48:48;2.83;;;0.50;;
49592;SDS011;35499;51.482;4.264;2023-04-25T12:51:13;4.82;;;0.40;;
49592;SDS011;35499;51.482;4.264;2023-04-25T12:53:38;4.47;;;0.93;;
49592;SDS011;35499;51.482;4.264;2023-04-25T12:56:05;3.58;;;0.43;;
49592;SDS011;35499;51.482;4.264;2023-04-25T12:58:32;2.90;;;0.70;;
49592;SDS011;35499;51.482;4.264;2023-04-25T13:00:58;3.83;;;0.80;;
49592;SDS011;35499;51.482;4.264;2023-04-25T13:03:23;5.63;;;0.67;;
49592;SDS011;35499;51.482;4.264;2023-04-25T13:05:49;4.30;;;0.57;;
49592;SDS011;35499;51.482;4.264;2023-04-25T13:10:41;2.90;;;0.50;;
49592;SDS011;35499;51.482;4.264;2023-04-25T13:13:06;4.28;;;0.50;;
49592;SDS011;35499;51.482;4.264;2023-04-25T13:15:32;4.32;;;0.75;;
49592;SDS011;35499;51.482;4.264;2023-04-25T13:17:57;5.07;;;0.80;;
49592;SDS011;35499;51.482;4.264;2023-04-25T13:20:22;6.17;;;0.70;;
49592;SDS011;35499;51.482;4.264;2023-04-25T13:22:48;2.28;;;0.40;;
49592;SDS011;35499;51.482;4.264;2023-04-25T13:25:13;2.03;;;0.22;;
49592;SDS011;35499;51.482;4.264;2023-04-25T13:27:39;2.97;;;0.60;;
49592;SDS011;35499;51.482;4.264;2023-04-25T13:32:34;4.40;;;0.70;;
49592;SDS011;35499;51.482;4.264;2023-04-25T13:35:03;4.35;;;0.57;;
49592;SDS011;35499;51.482;4.264;2023-04-25T13:37:30;3.28;;;0.40;;
49592;SDS011;35499;51.482;4.264;2023-04-25T13:39:58;3.47;;;0.50;;
49592;SDS011;35499;51.482;4.264;2023-04-25T13:42:24;3.75;;;0.43;;
49592;SDS011;35499;51.482;4.264;2023-04-25T13:44:49;2.45;;;0.50;;
49592;SDS011;35499;51.482;4.264;2023-04-25T13:47:15;3.30;;;0.63;;
49592;SDS011;35499;51.482;4.264;2023-04-25T13:49:40;7.40;;;0.60;;
49592;SDS011;35499;51.482;4.264;2023-04-25T13:52:05;3.87;;;0.63;;
49592;SDS011;35499;51.482;4.264;2023-04-25T13:54:31;3.70;;;0.68;;
49592;SDS011;35499;51.482;4.264;2023-04-25T13:56:56;4.63;;;0.47;;
49592;SDS011;35499;51.482;4.264;2023-04-25T13:59:24;2.45;;;0.50;;
49592;SDS011;35499;51.482;4.264;2023-04-25T14:01:50;2.13;;;0.77;;
49592;SDS011;35499;51.482;4.264;2023-04-25T14:04:16;3.33;;;0.55;;
49592;SDS011;35499;51.482;4.264;2023-04-25T14:06:41;2.40;;;0.60;;
49592;SDS011;35499;51.482;4.264;2023-04-25T14:09:06;4.90;;;0.80;;
49592;SDS011;35499;51.482;4.264;2023-04-25T14:11:35;3.53;;;1.25;;
49592;SDS011;35499;51.482;4.264;2023-04-25T14:14:01;3.00;;;0.60;;
49592;SDS011;35499;51.482;4.264;2023-04-25T14:16:27;3.75;;;0.77;;
49592;SDS011;35499;51.482;4.264;2023-04-25T14:18:52;5.25;;;0.55;;
49592;SDS011;35499;51.482;4.264;2023-04-25T14:21:19;2.72;;;0.50;;
49592;SDS011;35499;51.482;4.264;2023-04-25T14:23:45;1.88;;;0.40;;
49592;SDS011;35499;51.482;4.264;2023-04-25T14:26:11;5.90;;;0.70;;
49592;SDS011;35499;51.482;4.264;2023-04-25T14:28:37;1.67;;;0.43;;
49592;SDS011;35499;51.482;4.264;2023-04-25T14:31:03;3.53;;;0.80;;
49592;SDS011;35499;51.482;4.264;2023-04-25T14:33:28;3.08;;;0.50;;
49592;SDS011;35499;51.482;4.264;2023-04-25T14:35:54;3.53;;;0.60;;
49592;SDS011;35499;51.482;4.264;2023-04-25T14:38:19;3.72;;;0.60;;
49592;SDS011;35499;51.482;4.264;2023-04-25T14:40:48;5.05;;;0.40;;
49592;SDS011;35499;51.482;4.264;2023-04-25T14:43:13;5.93;;;0.60;;
49592;SDS011;35499;51.482;4.264;2023-04-25T14:45:38;3.03;;;0.47;;
49592;SDS011;35499;51.482;4.264;2023-04-25T14:48:04;1.17;;;0.38;;
49592;SDS011;35499;51.482;4.264;2023-04-25T14:50:29;4.35;;;0.70;;
49592;SDS011;35499;51.482;4.264;2023-04-25T14:52:55;3.42;;;1.00;;
49592;SDS011;35499;51.482;4.264;2023-04-25T14:55:23;2.85;;;0.65;;
49592;SDS011;35499;51.482;4.264;2023-04-25T14:57:49;3.22;;;0.68;;
49592;SDS011;35499;51.482;4.264;2023-04-25T15:00:14;3.60;;;0.77;;
49592;SDS011;35499;51.482;4.264;2023-04-25T15:05:06;3.08;;;0.57;;
49592;SDS011;35499;51.482;4.264;2023-04-25T15:07:33;3.47;;;0.40;;
49592;SDS011;35499;51.482;4.264;2023-04-25T15:09:59;5.13;;;0.50;;
49592;SDS011;35499;51.482;4.264;2023-04-25T15:12:25;3.65;;;0.80;;
49592;SDS011;35499;51.482;4.264;2023-04-25T15:14:53;3.67;;;0.77;;